Ana Sayfa
METAR-TAF:

METAR-TAF

Havaalanları :

Block Island, Rhode Island, Amerika Birleşik Devletleri

Enlem: 41-10N, Boylam: 071-34W, yükseklik: 33 m

Güncel hava durumu gözlemi

Rapor saat 00:56 UTC de 1 saat ve 3 dakika önce yapıldı.
Rüzgar kuzeydan 10 kt ve 16 kt'a kadar ani rüzgarlar
Sıcaklık 5°C
Nem 87%
Basınç 1005 hPa
Görüş mesafesi: 16.1 km
1300 ft yükseklikte çok bulutlu

METAR: KBID 190056Z AUTO 01010G16KT 10SM OVC013 05/03 A2968 RMK AO2 SLP052 T00500028

Saat: 20:59 (01:59 UTC)


TAF: eksik

4.000'den fazla havaalanı için hava durumu gözlemleri ve tahminleri (METAR ve TAF raporları).

Kullanılabilir istasyonlar harita üzerinde sarı ve kırmızı noktalarla gösterilir.

İstasyonun adını görmek için fareyi noktanın üzerinde gezdirin.

Sonrasında hava gözlem ve tahminlerini görmek için tıklayın.

Haritayı değiştirmek için: yaklaştırmak için siyah artı işaretli yeşil düğmeye ve uzaklaştırmak için de eksi işaretli düğmeye hızla tıklayın; bitişik haritalar için yeşil okları kullanın.


METAR-TAF: